createdAt,value
2022-11-06T00:22:35.708Z,100866.28
2022-11-06T00:25:53.037Z,100856.63
2022-11-06T00:28:20.538Z,100849.72
2022-11-06T00:30:48.033Z,100850.56
2022-11-06T00:33:15.642Z,100850.59
2022-11-06T00:35:43.077Z,100862.16
2022-11-06T00:38:10.919Z,100872.63
2022-11-06T00:40:38.706Z,100880.47
2022-11-06T00:43:06.225Z,100889.19
2022-11-06T00:45:33.699Z,100893.28
2022-11-06T00:48:01.223Z,100901.00
2022-11-06T00:50:28.732Z,100887.59
2022-11-06T00:52:56.299Z,100891.38
2022-11-06T00:55:26.107Z,100890.19
2022-11-06T00:57:53.558Z,100891.00
2022-11-06T01:00:22.302Z,100896.34
2022-11-06T01:02:50.116Z,100905.84
2022-11-06T01:05:17.979Z,100912.84
2022-11-06T01:07:45.417Z,100898.81
2022-11-06T01:10:13.008Z,100908.47
2022-11-06T01:12:40.445Z,100924.13
2022-11-06T01:15:08.241Z,100909.13
2022-11-06T01:17:35.872Z,100920.47
2022-11-06T01:20:05.090Z,100934.31
2022-11-06T01:22:33.572Z,100925.78
2022-11-06T01:25:01.224Z,100918.78
2022-11-06T01:27:28.813Z,100920.19
2022-11-06T01:29:56.903Z,100908.50
2022-11-06T01:32:24.334Z,100913.19
2022-11-06T01:34:51.802Z,100911.63
2022-11-06T01:37:19.364Z,100902.94
2022-11-06T01:39:48.526Z,100902.28
2022-11-06T01:42:18.728Z,100908.44
2022-11-06T01:45:07.757Z,100906.16
2022-11-06T01:47:35.123Z,100895.81
2022-11-06T01:50:08.915Z,100887.16
2022-11-06T01:52:37.058Z,100886.22
2022-11-06T01:55:13.279Z,100884.53
2022-11-06T01:57:41.016Z,100882.03
2022-11-06T02:00:09.271Z,100875.84
2022-11-06T02:02:38.330Z,100876.66
2022-11-06T02:05:06.565Z,100871.41
2022-11-06T02:07:34.416Z,100874.75
2022-11-06T02:10:02.182Z,100877.38
2022-11-06T02:12:39.474Z,100872.16
2022-11-06T02:15:13.166Z,100874.22
2022-11-06T02:18:00.033Z,100876.75
2022-11-06T02:20:42.490Z,100879.34
2022-11-06T02:23:50.862Z,100874.94
2022-11-06T02:26:51.041Z,100874.31
2022-11-06T02:29:22.788Z,100864.78
2022-11-06T02:31:54.865Z,100867.34
2022-11-06T02:34:26.162Z,100870.88
2022-11-06T02:37:01.470Z,100876.13
2022-11-06T02:39:34.322Z,100883.28
2022-11-06T02:42:05.284Z,100885.00
2022-11-06T02:44:36.538Z,100888.34
2022-11-06T02:47:10.514Z,100896.22
2022-11-06T02:49:40.623Z,100896.38
2022-11-06T02:52:25.374Z,100898.09
2022-11-06T02:55:02.806Z,100893.81
2022-11-06T02:57:36.281Z,100894.69
2022-11-06T03:00:15.029Z,100892.28
2022-11-06T03:02:50.013Z,100888.91
2022-11-06T03:05:25.097Z,100896.53
2022-11-06T03:08:00.384Z,100891.28
2022-11-06T03:10:33.675Z,100895.50
2022-11-06T03:13:14.682Z,100898.63
2022-11-06T03:15:53.217Z,100887.34
2022-11-06T03:19:05.133Z,100895.03
2022-11-06T03:21:38.958Z,100891.72
2022-11-06T03:24:31.087Z,100893.88
2022-11-06T03:27:02.477Z,100888.63
2022-11-06T03:29:40.224Z,100897.44
2022-11-06T03:32:15.102Z,100907.13
2022-11-06T03:34:51.561Z,100907.84
2022-11-06T03:37:36.142Z,100912.03
2022-11-06T03:40:09.524Z,100918.16
2022-11-06T03:42:40.490Z,100923.28
2022-11-06T03:45:12.074Z,100917.78
2022-11-06T03:47:46.699Z,100918.84
2022-11-06T03:50:20.974Z,100914.72
2022-11-06T03:52:55.517Z,100919.16
2022-11-06T03:55:28.469Z,100913.81
2022-11-06T03:57:59.724Z,100926.03
2022-11-06T04:00:27.109Z,100928.50
2022-11-06T04:03:04.990Z,100921.47
2022-11-06T04:05:38.306Z,100927.34
2022-11-06T04:08:26.635Z,100938.38
2022-11-06T04:11:18.063Z,100938.38
2022-11-06T04:14:03.004Z,100941.34
2022-11-06T04:16:36.397Z,100939.59
2022-11-06T04:19:06.097Z,100946.56
2022-11-06T04:21:36.446Z,100951.13
2022-11-06T04:24:35.786Z,100955.59
2022-11-06T04:27:39.126Z,100947.31
2022-11-06T04:30:06.838Z,100948.56
2022-11-06T04:33:01.922Z,100952.41
2022-11-06T04:35:40.549Z,100961.81
2022-11-06T04:38:36.374Z,100963.84
2022-11-06T04:41:12.763Z,100958.78
2022-11-06T04:43:51.975Z,100971.16
2022-11-06T04:46:25.621Z,100963.06
2022-11-06T04:48:54.358Z,100961.22
2022-11-06T04:51:27.311Z,100962.31
2022-11-06T04:53:55.574Z,100962.25
2022-11-06T04:56:29.474Z,100966.47
2022-11-06T04:58:58.081Z,100958.78
2022-11-06T05:01:26.108Z,100958.88
2022-11-06T05:03:53.600Z,100963.06
2022-11-06T05:06:23.538Z,100962.84
2022-11-06T05:08:55.460Z,100960.56
2022-11-06T05:11:22.928Z,100963.22
2022-11-06T05:13:50.661Z,100960.09
2022-11-06T05:16:18.253Z,100954.03
2022-11-06T05:18:45.761Z,100957.94
2022-11-06T05:21:31.384Z,100959.88
2022-11-06T05:23:58.829Z,100955.25
2022-11-06T05:26:26.420Z,100959.53
2022-11-06T05:28:53.811Z,100963.53
2022-11-06T05:31:21.359Z,100958.94
2022-11-06T05:33:48.900Z,100954.41
2022-11-06T05:36:16.632Z,100956.22
2022-11-06T05:38:44.223Z,100966.06
2022-11-06T05:41:11.615Z,100961.81
2022-11-06T05:43:39.262Z,100965.06
2022-11-06T05:46:14.963Z,100975.94
2022-11-06T05:48:51.480Z,100975.13
2022-11-06T05:51:20.027Z,100973.22
2022-11-06T05:53:47.576Z,100980.75
2022-11-06T05:56:15.315Z,100981.81
2022-11-06T05:58:44.871Z,100976.84
2022-11-06T06:01:13.356Z,100983.78
2022-11-06T06:03:41.132Z,100984.44
2022-11-06T06:06:08.626Z,100997.06
2022-11-06T06:08:36.222Z,101005.25
2022-11-06T06:11:07.506Z,101006.28
2022-11-06T06:13:37.902Z,101010.84
2022-11-06T06:16:06.444Z,101008.81
2022-11-06T06:18:34.233Z,101008.44
2022-11-06T06:21:01.744Z,101022.22
2022-11-06T06:23:29.193Z,101027.38
2022-11-06T06:25:57.533Z,101018.84
2022-11-06T06:28:25.189Z,101031.38
2022-11-06T06:30:57.189Z,101031.34
2022-11-06T06:33:27.652Z,101037.50
2022-11-06T06:35:55.181Z,101036.81
2022-11-06T06:38:22.929Z,101035.03
2022-11-06T06:40:50.348Z,101049.34
2022-11-06T06:43:17.810Z,101060.50
2022-11-06T06:45:45.285Z,101061.13
2022-11-06T06:48:13.077Z,101071.88
2022-11-06T06:50:41.085Z,101081.75
2022-11-06T06:53:08.529Z,101083.16
2022-11-06T06:55:36.045Z,101079.03
2022-11-06T06:58:03.526Z,101068.91
2022-11-06T07:00:31.123Z,101075.41
2022-11-06T07:02:58.562Z,101078.34
2022-11-06T07:05:28.535Z,101077.63
2022-11-06T07:07:56.928Z,101092.78
2022-11-06T07:10:24.430Z,101085.13
2022-11-06T07:13:01.399Z,101090.38
2022-11-06T07:15:29.650Z,101097.47
2022-11-06T07:18:03.125Z,101099.50
2022-11-06T07:20:30.910Z,101101.63
2022-11-06T07:22:58.584Z,101097.28
2022-11-06T07:25:28.702Z,101088.69
2022-11-06T07:28:02.819Z,101100.06
2022-11-06T07:30:31.087Z,101103.03
2022-11-06T07:33:02.787Z,101109.53
2022-11-06T07:35:31.323Z,101102.00
2022-11-06T07:38:01.780Z,101094.84
2022-11-06T07:40:29.886Z,101107.19
2022-11-06T07:43:06.428Z,101109.22
2022-11-06T07:45:34.738Z,101105.91
2022-11-06T07:48:02.519Z,101100.81
2022-11-06T07:50:30.203Z,101099.41
2022-11-06T07:52:58.333Z,101104.84
2022-11-06T07:55:26.271Z,101086.81
2022-11-06T07:57:53.769Z,101099.31
2022-11-06T08:00:21.525Z,101100.00
2022-11-06T08:02:53.279Z,101101.00
2022-11-06T08:05:21.363Z,101106.88
2022-11-06T08:07:48.979Z,101114.38
2022-11-06T08:10:16.764Z,101124.03
2022-11-06T08:12:44.297Z,101127.72
2022-11-06T08:15:12.067Z,101130.22
2022-11-06T08:17:39.545Z,101124.00
2022-11-06T08:20:08.087Z,101121.03
2022-11-06T08:22:35.836Z,101115.03
2022-11-06T08:25:03.549Z,101118.28
2022-11-06T08:27:31.014Z,101121.09
2022-11-06T08:29:58.887Z,101119.28
2022-11-06T08:32:28.436Z,101120.16
2022-11-06T08:34:55.972Z,101124.38
2022-11-06T08:37:26.066Z,101109.88
2022-11-06T08:39:53.552Z,101103.53
2022-11-06T08:42:21.247Z,101109.94
2022-11-06T08:44:48.744Z,101107.00
2022-11-06T08:47:16.347Z,101108.66
2022-11-06T08:49:43.823Z,101118.00
2022-11-06T08:52:11.434Z,101113.78
2022-11-06T08:54:38.967Z,101112.56
2022-11-06T08:57:06.475Z,101109.81
2022-11-06T08:59:34.091Z,101107.59
2022-11-06T09:02:02.369Z,101108.41
2022-11-06T09:04:30.465Z,101109.28
2022-11-06T09:06:58.864Z,101110.03
2022-11-06T09:09:32.129Z,101111.16
2022-11-06T09:12:00.776Z,101100.69
2022-11-06T09:14:28.240Z,101102.44
2022-11-06T09:16:55.841Z,101104.22
2022-11-06T09:19:25.874Z,101112.59
2022-11-06T09:21:56.365Z,101107.75
2022-11-06T09:24:37.520Z,101111.59
2022-11-06T09:27:11.641Z,101108.63
2022-11-06T09:29:40.986Z,101112.56
2022-11-06T09:32:08.522Z,101104.84
2022-11-06T09:34:36.107Z,101114.63
2022-11-06T09:37:03.736Z,101106.00
2022-11-06T09:39:31.353Z,101110.31
2022-11-06T09:42:04.846Z,101109.78
2022-11-06T09:44:46.380Z,101108.69
2022-11-06T09:47:19.019Z,101110.59
2022-11-06T09:49:52.500Z,101114.16
2022-11-06T09:52:42.872Z,101122.50
2022-11-06T09:55:22.393Z,101103.03
2022-11-06T09:58:04.072Z,101105.31
2022-11-06T10:00:31.863Z,101107.25
2022-11-06T10:03:30.607Z,101100.69
2022-11-06T10:05:58.191Z,101091.81
2022-11-06T10:08:30.751Z,101095.75
2022-11-06T10:10:58.221Z,101091.03
2022-11-06T10:14:06.544Z,101091.34
2022-11-06T10:16:42.708Z,101091.78
2022-11-06T10:19:20.459Z,101081.69
2022-11-06T10:22:08.293Z,101089.09
2022-11-06T10:25:06.375Z,101089.53
2022-11-06T10:27:43.400Z,101071.31
2022-11-06T10:30:18.621Z,101071.50
2022-11-06T10:33:17.905Z,101087.38
2022-11-06T10:35:59.560Z,101079.75
2022-11-06T10:38:36.630Z,101077.66
2022-11-06T10:45:16.958Z,101070.78
2022-11-06T10:47:55.640Z,101070.53
2022-11-06T10:50:28.289Z,101064.75
2022-11-06T10:53:05.995Z,101057.31
2022-11-06T10:55:42.337Z,101060.94
2022-11-06T10:58:14.493Z,101062.78
2022-11-06T11:00:42.815Z,101051.28
2022-11-06T11:08:30.473Z,101045.69
2022-11-06T11:11:06.850Z,101037.78
2022-11-06T11:13:34.806Z,101039.03
2022-11-06T11:16:03.316Z,101035.31
2022-11-06T11:18:32.251Z,101049.38
2022-11-06T11:21:13.580Z,101032.38
2022-11-06T11:23:41.323Z,101030.16
2022-11-06T11:26:32.883Z,101025.75
2022-11-06T11:29:12.243Z,101011.91
2022-11-06T11:31:40.025Z,101013.75
2022-11-06T11:34:19.215Z,101011.19
2022-11-06T11:37:04.040Z,101024.75
2022-11-06T11:39:34.899Z,101013.03
2022-11-06T11:42:26.363Z,101023.81
2022-11-06T11:45:08.747Z,101016.84
2022-11-06T11:47:38.081Z,101017.97
2022-11-06T11:50:29.828Z,101015.69
2022-11-06T11:53:07.133Z,101012.63
2022-11-06T11:55:44.929Z,101016.31
2022-11-06T11:58:28.127Z,101014.50
2022-11-06T12:01:07.903Z,101006.38
2022-11-06T12:03:53.343Z,101004.75
2022-11-06T12:06:23.729Z,101004.28
2022-11-06T12:08:58.991Z,100992.53
2022-11-06T12:11:30.733Z,100992.09
2022-11-06T12:14:53.314Z,100992.38
2022-11-06T12:17:24.732Z,100988.19
2022-11-06T12:19:57.822Z,100974.06
2022-11-06T12:22:31.478Z,100980.34
2022-11-06T12:25:08.970Z,100967.78
2022-11-06T12:27:44.260Z,100966.53
2022-11-06T12:30:16.040Z,100973.22
2022-11-06T12:33:04.385Z,100968.56
2022-11-06T12:35:38.345Z,100978.25
2022-11-06T12:38:30.300Z,100969.44
2022-11-06T12:41:01.996Z,100966.09
2022-11-06T12:43:32.113Z,100974.25
2022-11-06T12:46:22.306Z,100960.56
2022-11-06T12:49:17.481Z,100958.50
2022-11-06T12:52:18.766Z,100952.63
2022-11-06T12:55:04.409Z,100946.47
2022-11-06T12:58:11.160Z,100936.50
2022-11-06T13:00:48.807Z,100936.31
2022-11-06T13:03:42.345Z,100942.28
2022-11-06T13:06:24.166Z,100932.59
2022-11-06T13:09:09.054Z,100939.50
2022-11-06T13:11:42.475Z,100929.88
2022-11-06T13:14:32.335Z,100940.59
2022-11-06T13:17:35.458Z,100931.94
2022-11-06T13:20:15.270Z,100926.88
2022-11-06T13:22:49.852Z,100936.53
2022-11-06T13:25:27.005Z,100921.56
2022-11-06T13:28:08.550Z,100921.69
2022-11-06T13:30:38.405Z,100926.34
2022-11-06T13:33:15.734Z,100929.09
2022-11-06T13:35:46.467Z,100925.78
2022-11-06T13:38:21.222Z,100932.78
2022-11-06T13:40:54.009Z,100927.66
2022-11-06T13:43:38.725Z,100926.66
2022-11-06T13:46:11.339Z,100932.06
2022-11-06T13:48:41.783Z,100923.81
2022-11-06T13:51:33.549Z,100921.09
2022-11-06T13:54:30.603Z,100917.72
2022-11-06T13:57:12.138Z,100921.81
2022-11-06T13:59:42.254Z,100926.28
2022-11-06T14:02:35.793Z,100920.03
2022-11-06T14:05:18.155Z,100913.16
2022-11-06T14:07:47.482Z,100917.63
2022-11-06T14:10:24.072Z,100918.72
2022-11-06T14:12:52.178Z,100916.34
2022-11-06T14:15:19.434Z,100914.50
2022-11-06T14:17:58.698Z,100917.59
2022-11-06T14:20:34.851Z,100915.31
2022-11-06T14:23:31.179Z,100911.56
2022-11-06T14:26:04.761Z,100907.91
2022-11-06T14:28:35.201Z,100894.69
2022-11-06T14:31:12.478Z,100900.84
2022-11-06T14:33:42.111Z,100900.22
2022-11-06T14:36:26.054Z,100911.66
2022-11-06T14:38:54.641Z,100908.22
2022-11-06T14:41:48.183Z,100895.19
2022-11-06T14:44:24.687Z,100903.34
2022-11-06T14:47:00.357Z,100902.69
2022-11-06T14:49:46.709Z,100900.94
2022-11-06T14:52:16.297Z,100902.72
2022-11-06T14:55:03.470Z,100910.53
2022-11-06T14:57:38.302Z,100908.75
2022-11-06T15:00:07.311Z,100908.03
2022-11-06T15:02:37.490Z,100907.31
2022-11-06T15:05:15.814Z,100914.75
2022-11-06T15:08:04.527Z,100913.16
2022-11-06T15:10:42.799Z,100917.94
2022-11-06T15:13:23.011Z,100919.50
2022-11-06T15:15:56.845Z,100921.34
2022-11-06T15:18:25.768Z,100919.78
2022-11-06T15:20:59.659Z,100916.50
2022-11-06T15:23:50.126Z,100914.00
2022-11-06T15:26:26.810Z,100911.50
2022-11-06T15:29:00.013Z,100913.47
2022-11-06T15:31:33.554Z,100918.78
2022-11-06T15:34:13.044Z,100922.50
2022-11-06T15:36:47.818Z,100911.25
2022-11-06T15:39:41.646Z,100914.91
2022-11-06T15:42:16.415Z,100912.41
2022-11-06T15:44:46.439Z,100915.03
2022-11-06T15:47:24.109Z,100921.31
2022-11-06T15:50:06.633Z,100916.13
2022-11-06T15:52:34.276Z,100914.38
2022-11-06T15:55:01.618Z,100911.16
2022-11-06T15:57:30.026Z,100912.13
2022-11-06T16:00:19.257Z,100912.13
2022-11-06T16:02:53.217Z,100916.72
2022-11-06T16:05:24.983Z,100923.88
2022-11-06T16:07:52.737Z,100919.38
2022-11-06T16:10:23.577Z,100923.03
2022-11-06T16:12:53.858Z,100916.06
2022-11-06T16:16:01.160Z,100917.81
2022-11-06T16:18:45.020Z,100918.69
2022-11-06T16:21:24.111Z,100921.31
2022-11-06T16:23:55.247Z,100923.06
2022-11-06T16:26:25.461Z,100928.41
2022-11-06T16:28:56.455Z,100932.72
2022-11-06T16:31:28.159Z,100927.63
2022-11-06T16:33:58.409Z,100932.91
2022-11-06T16:36:28.245Z,100935.34
2022-11-06T16:39:18.436Z,100932.88
2022-11-06T16:41:57.787Z,100937.38
2022-11-06T16:44:31.805Z,100935.81
2022-11-06T16:47:05.255Z,100927.94
2022-11-06T16:49:42.602Z,100928.81
2022-11-06T16:52:29.675Z,100925.25
2022-11-06T16:54:57.146Z,100923.50
2022-11-06T16:57:31.303Z,100928.75
2022-11-06T17:00:05.392Z,100932.31
2022-11-06T17:02:36.607Z,100927.06
2022-11-06T17:05:18.222Z,100926.19
2022-11-06T17:07:46.101Z,100936.75
2022-11-06T17:10:35.880Z,100941.25
2022-11-06T17:13:22.963Z,100937.94
2022-11-06T17:15:57.198Z,100938.81
2022-11-06T17:18:30.277Z,100942.22
2022-11-06T17:21:00.598Z,100936.13
2022-11-06T17:23:29.748Z,100943.22
2022-11-06T17:26:02.219Z,100936.97
2022-11-06T17:28:31.007Z,100938.69
2022-11-06T17:30:59.003Z,100935.19
2022-11-06T17:33:29.708Z,100937.75
2022-11-06T17:35:57.203Z,100941.28
2022-11-06T17:38:24.601Z,100942.22
2022-11-06T17:40:52.056Z,100943.13
2022-11-06T17:43:20.490Z,100950.16
2022-11-06T17:45:50.044Z,100952.78
2022-11-06T17:48:18.105Z,100945.78
2022-11-06T17:51:04.017Z,100951.00
2022-11-06T17:53:41.047Z,100951.91
2022-11-06T17:56:08.850Z,100958.03
2022-11-06T17:58:36.583Z,100951.91
2022-11-06T18:01:09.065Z,100960.69
2022-11-06T18:03:44.476Z,100968.59
2022-11-06T18:06:15.785Z,100968.56
2022-11-06T18:08:43.994Z,100967.69
2022-11-06T18:11:13.958Z,100964.19
2022-11-06T18:13:41.706Z,100974.75
2022-11-06T18:16:18.921Z,100973.84
2022-11-06T18:18:46.723Z,100978.28
2022-11-06T18:21:14.524Z,100969.53
2022-11-06T18:23:42.696Z,100965.16
2022-11-06T18:26:10.268Z,100969.53
2022-11-06T18:28:37.753Z,100974.81
2022-11-06T18:31:11.159Z,100975.69
2022-11-06T18:33:38.819Z,100960.81
2022-11-06T18:36:08.521Z,100962.53
2022-11-06T18:38:36.960Z,100966.06
2022-11-06T18:41:13.070Z,100965.16
2022-11-06T18:43:40.838Z,100972.19
2022-11-06T18:46:17.658Z,100979.19
2022-11-06T18:48:45.139Z,100976.56
2022-11-06T18:51:32.639Z,100972.19
2022-11-06T18:54:05.868Z,100980.94
2022-11-06T18:56:35.976Z,100982.72
2022-11-06T18:59:06.336Z,100976.56
2022-11-06T19:01:35.332Z,100971.31
2022-11-06T19:04:04.269Z,100972.16
2022-11-06T19:06:32.602Z,100972.19
2022-11-06T19:09:00.311Z,100964.28
2022-11-06T19:11:27.750Z,100972.16
2022-11-06T19:13:55.168Z,100973.91
2022-11-06T19:16:22.785Z,100962.50
2022-11-06T19:21:30.001Z,100979.19
2022-11-06T19:24:05.198Z,100981.78
2022-11-06T19:26:34.667Z,100975.69
2022-11-06T19:29:03.349Z,100985.31
2022-11-06T19:31:32.280Z,100979.19
2022-11-06T19:34:00.233Z,100974.81
2022-11-06T19:36:28.927Z,100981.78
2022-11-06T19:38:59.967Z,100987.91
2022-11-06T19:41:28.469Z,100973.00
2022-11-06T19:43:55.932Z,100976.44
2022-11-06T19:46:27.304Z,100972.06
2022-11-06T19:48:58.434Z,100969.44
2022-11-06T19:51:26.029Z,100978.22
2022-11-06T19:53:54.132Z,100980.00
2022-11-06T19:56:22.138Z,100973.88
2022-11-06T19:58:50.783Z,100972.13
2022-11-06T20:01:19.395Z,100964.25
2022-11-06T20:03:47.611Z,100975.59
2022-11-06T20:06:15.409Z,100982.56
2022-11-06T20:08:43.038Z,100972.06
2022-11-06T20:11:14.004Z,100979.13
2022-11-06T20:13:43.926Z,100983.47
2022-11-06T20:16:14.891Z,100974.75
2022-11-06T20:18:42.749Z,100985.28
2022-11-06T20:21:12.420Z,100981.75
2022-11-06T20:23:40.162Z,100985.22
2022-11-06T20:26:08.267Z,100983.41
2022-11-06T20:28:36.088Z,100996.53
2022-11-06T20:31:11.789Z,101008.72
2022-11-06T20:33:40.540Z,101002.53
2022-11-06T20:36:13.313Z,101009.63
2022-11-06T20:38:41.826Z,101025.38
2022-11-06T20:41:10.133Z,101013.94
2022-11-06T20:43:37.859Z,101015.59
2022-11-06T20:46:06.198Z,101017.50
2022-11-06T20:48:37.015Z,101013.13
2022-11-06T20:51:10.515Z,101021.00
2022-11-06T20:53:39.677Z,101011.38
2022-11-06T20:56:15.169Z,101020.88
2022-11-06T20:58:44.717Z,101010.31
2022-11-06T21:01:20.402Z,101015.66
2022-11-06T21:03:50.851Z,101017.41
2022-11-06T21:06:21.495Z,101020.91
2022-11-06T21:08:49.154Z,101019.91
2022-11-06T21:11:19.507Z,101012.06
2022-11-06T21:13:49.014Z,101019.03
2022-11-06T21:16:22.913Z,101024.25
2022-11-06T21:18:51.479Z,101004.97
2022-11-06T21:21:22.222Z,101008.50
2022-11-06T21:23:50.787Z,101008.53
2022-11-06T21:26:21.746Z,101025.13
2022-11-06T21:28:50.018Z,101014.63
2022-11-06T21:31:20.697Z,101015.44
2022-11-06T21:33:50.529Z,101011.81
2022-11-06T21:36:25.364Z,101012.69
2022-11-06T21:38:54.393Z,101006.63
2022-11-06T21:41:25.448Z,101003.09
2022-11-06T21:43:53.377Z,101012.72
2022-11-06T21:46:22.044Z,101004.75
2022-11-06T21:48:50.261Z,101002.97
2022-11-06T21:51:18.055Z,101014.38
2022-11-06T21:54:05.743Z,101011.66
2022-11-06T21:56:34.045Z,101006.44
2022-11-06T21:59:04.244Z,101017.91
2022-11-06T22:01:32.413Z,101025.72
2022-11-06T22:04:00.329Z,101033.47
2022-11-06T22:06:29.283Z,101029.91
2022-11-06T22:08:59.761Z,101030.06
2022-11-06T22:11:30.625Z,101021.25
2022-11-06T22:14:00.847Z,101027.34
2022-11-06T22:16:32.253Z,101040.53
2022-11-06T22:18:59.779Z,101040.53
2022-11-06T22:21:29.232Z,101043.31
2022-11-06T22:23:57.538Z,101033.72
2022-11-06T22:26:29.114Z,101039.91
2022-11-06T22:29:07.154Z,101034.66
2022-11-06T22:31:35.295Z,101035.50
2022-11-06T22:34:03.855Z,101033.59
2022-11-06T22:36:32.097Z,101029.34
2022-11-06T22:39:04.426Z,101036.41
2022-11-06T22:41:31.905Z,101038.06
2022-11-06T22:43:59.882Z,101031.38
2022-11-06T22:46:33.336Z,101028.94
2022-11-06T22:54:00.758Z,101026.59
2022-11-06T22:56:31.053Z,101040.50
2022-11-06T22:59:02.017Z,101028.22
2022-11-06T23:02:00.781Z,101021.22
2022-11-06T23:04:37.769Z,101034.31
2022-11-06T23:07:05.436Z,101026.66
2022-11-06T23:09:32.978Z,101025.72
2022-11-06T23:12:00.634Z,101032.75
2022-11-06T23:14:28.645Z,101039.78
2022-11-06T23:17:00.857Z,101030.06
2022-11-06T23:19:30.970Z,101028.44
2022-11-06T23:22:17.438Z,101023.28
2022-11-06T23:24:45.728Z,101031.13
2022-11-06T23:27:13.302Z,101024.16
2022-11-06T23:29:40.781Z,101034.75
2022-11-06T23:32:10.870Z,101021.63
2022-11-06T23:34:38.392Z,101026.09
2022-11-06T23:37:06.001Z,101026.97
2022-11-06T23:39:33.471Z,101019.97
2022-11-06T23:42:03.541Z,101034.88
2022-11-06T23:44:49.726Z,101016.47
2022-11-06T23:47:17.319Z,101026.88
2022-11-06T23:49:44.872Z,101026.00
2022-11-06T23:52:12.563Z,101021.72
2022-11-06T23:54:40.096Z,101021.47
2022-11-06T23:57:08.654Z,101026.00
2022-11-06T23:59:36.519Z,101031.44
